sensor_id;sensor_type;location;lat;lon;timestamp;P1;durP1;ratioP1;P2;durP2;ratioP2
16612;SDS011;8419;52.358;9.752;2022-12-18T00:02:40;12.90;;;7.17;;
16612;SDS011;8419;52.358;9.752;2022-12-18T00:05:26;10.53;;;6.60;;
16612;SDS011;8419;52.358;9.752;2022-12-18T00:08:12;7.60;;;6.20;;
16612;SDS011;8419;52.358;9.752;2022-12-18T00:11:03;12.23;;;6.27;;
16612;SDS011;8419;52.358;9.752;2022-12-18T00:13:49;14.00;;;7.30;;
16612;SDS011;8419;52.358;9.752;2022-12-18T00:16:36;14.47;;;7.67;;
16612;SDS011;8419;52.358;9.752;2022-12-18T00:19:22;10.30;;;6.70;;
16612;SDS011;8419;52.358;9.752;2022-12-18T00:22:07;17.93;;;7.57;;
16612;SDS011;8419;52.358;9.752;2022-12-18T00:24:53;12.17;;;7.10;;
16612;SDS011;8419;52.358;9.752;2022-12-18T00:27:39;13.00;;;7.53;;
16612;SDS011;8419;52.358;9.752;2022-12-18T00:30:24;10.47;;;6.87;;
16612;SDS011;8419;52.358;9.752;2022-12-18T00:33:10;11.03;;;7.10;;
16612;SDS011;8419;52.358;9.752;2022-12-18T00:36:00;14.20;;;7.30;;
16612;SDS011;8419;52.358;9.752;2022-12-18T00:38:46;15.27;;;8.07;;
16612;SDS011;8419;52.358;9.752;2022-12-18T00:41:32;12.13;;;6.83;;
16612;SDS011;8419;52.358;9.752;2022-12-18T00:44:37;10.03;;;6.30;;
16612;SDS011;8419;52.358;9.752;2022-12-18T00:47:23;10.27;;;6.60;;
16612;SDS011;8419;52.358;9.752;2022-12-18T00:50:09;12.80;;;7.07;;
16612;SDS011;8419;52.358;9.752;2022-12-18T00:52:54;13.57;;;7.47;;
16612;SDS011;8419;52.358;9.752;2022-12-18T00:55:40;12.07;;;6.77;;
16612;SDS011;8419;52.358;9.752;2022-12-18T00:58:27;14.30;;;7.73;;
16612;SDS011;8419;52.358;9.752;2022-12-18T01:01:12;14.93;;;8.50;;
16612;SDS011;8419;52.358;9.752;2022-12-18T01:03:58;13.03;;;8.07;;
16612;SDS011;8419;52.358;9.752;2022-12-18T01:06:44;11.13;;;6.80;;
16612;SDS011;8419;52.358;9.752;2022-12-18T01:09:30;12.00;;;7.23;;
16612;SDS011;8419;52.358;9.752;2022-12-18T01:12:15;12.97;;;6.33;;
16612;SDS011;8419;52.358;9.752;2022-12-18T01:15:01;12.90;;;6.83;;
16612;SDS011;8419;52.358;9.752;2022-12-18T01:17:47;15.60;;;6.80;;
16612;SDS011;8419;52.358;9.752;2022-12-18T01:20:33;12.33;;;6.50;;
16612;SDS011;8419;52.358;9.752;2022-12-18T01:23:19;12.67;;;7.30;;
16612;SDS011;8419;52.358;9.752;2022-12-18T01:26:05;11.50;;;7.00;;
16612;SDS011;8419;52.358;9.752;2022-12-18T01:28:53;11.57;;;7.17;;
16612;SDS011;8419;52.358;9.752;2022-12-18T01:31:39;12.57;;;7.17;;
16612;SDS011;8419;52.358;9.752;2022-12-18T01:34:25;11.83;;;6.73;;
16612;SDS011;8419;52.358;9.752;2022-12-18T01:37:11;12.60;;;7.57;;
16612;SDS011;8419;52.358;9.752;2022-12-18T01:39:56;15.63;;;7.50;;
16612;SDS011;8419;52.358;9.752;2022-12-18T01:42:42;9.87;;;5.87;;
16612;SDS011;8419;52.358;9.752;2022-12-18T01:45:28;11.37;;;5.93;;
16612;SDS011;8419;52.358;9.752;2022-12-18T01:48:16;10.80;;;6.27;;
16612;SDS011;8419;52.358;9.752;2022-12-18T01:51:02;12.57;;;6.90;;
16612;SDS011;8419;52.358;9.752;2022-12-18T01:53:48;12.47;;;6.70;;
16612;SDS011;8419;52.358;9.752;2022-12-18T01:56:35;13.13;;;6.97;;
16612;SDS011;8419;52.358;9.752;2022-12-18T01:59:22;13.63;;;6.83;;
16612;SDS011;8419;52.358;9.752;2022-12-18T02:02:08;12.27;;;6.63;;
16612;SDS011;8419;52.358;9.752;2022-12-18T02:04:54;12.77;;;6.90;;
16612;SDS011;8419;52.358;9.752;2022-12-18T02:07:42;12.40;;;6.83;;
16612;SDS011;8419;52.358;9.752;2022-12-18T02:10:33;14.20;;;7.37;;
16612;SDS011;8419;52.358;9.752;2022-12-18T02:13:27;11.97;;;6.83;;
16612;SDS011;8419;52.358;9.752;2022-12-18T02:16:21;10.80;;;6.87;;
16612;SDS011;8419;52.358;9.752;2022-12-18T02:19:15;14.70;;;6.83;;
16612;SDS011;8419;52.358;9.752;2022-12-18T02:22:16;15.97;;;6.57;;
16612;SDS011;8419;52.358;9.752;2022-12-18T02:25:17;13.40;;;6.00;;
16612;SDS011;8419;52.358;9.752;2022-12-18T02:28:13;9.63;;;5.83;;
16612;SDS011;8419;52.358;9.752;2022-12-18T02:31:01;10.87;;;6.23;;
16612;SDS011;8419;52.358;9.752;2022-12-18T02:33:50;9.63;;;6.03;;
16612;SDS011;8419;52.358;9.752;2022-12-18T02:36:40;8.73;;;6.27;;
16612;SDS011;8419;52.358;9.752;2022-12-18T02:39:30;12.83;;;6.93;;
16612;SDS011;8419;52.358;9.752;2022-12-18T02:42:17;13.30;;;7.00;;
16612;SDS011;8419;52.358;9.752;2022-12-18T02:45:05;14.23;;;6.77;;
16612;SDS011;8419;52.358;9.752;2022-12-18T02:47:52;13.50;;;5.87;;
16612;SDS011;8419;52.358;9.752;2022-12-18T02:50:38;13.40;;;7.33;;
16612;SDS011;8419;52.358;9.752;2022-12-18T02:53:32;9.13;;;6.70;;
16612;SDS011;8419;52.358;9.752;2022-12-18T02:56:25;11.33;;;6.60;;
16612;SDS011;8419;52.358;9.752;2022-12-18T02:59:15;8.83;;;6.50;;
16612;SDS011;8419;52.358;9.752;2022-12-18T03:02:10;11.60;;;6.30;;
16612;SDS011;8419;52.358;9.752;2022-12-18T03:05:07;14.77;;;6.97;;
16612;SDS011;8419;52.358;9.752;2022-12-18T03:07:58;12.37;;;6.47;;
16612;SDS011;8419;52.358;9.752;2022-12-18T03:10:49;9.70;;;6.00;;
16612;SDS011;8419;52.358;9.752;2022-12-18T03:13:39;11.03;;;6.47;;
16612;SDS011;8419;52.358;9.752;2022-12-18T03:16:28;13.27;;;7.13;;
16612;SDS011;8419;52.358;9.752;2022-12-18T03:19:19;10.30;;;6.87;;
16612;SDS011;8419;52.358;9.752;2022-12-18T03:22:09;12.83;;;6.70;;
16612;SDS011;8419;52.358;9.752;2022-12-18T03:24:55;11.40;;;6.40;;
16612;SDS011;8419;52.358;9.752;2022-12-18T03:27:43;13.83;;;6.57;;
16612;SDS011;8419;52.358;9.752;2022-12-18T03:30:33;9.00;;;6.70;;
16612;SDS011;8419;52.358;9.752;2022-12-18T03:33:25;16.17;;;6.97;;
16612;SDS011;8419;52.358;9.752;2022-12-18T03:36:14;12.00;;;7.03;;
16612;SDS011;8419;52.358;9.752;2022-12-18T03:39:00;12.97;;;7.33;;
16612;SDS011;8419;52.358;9.752;2022-12-18T03:41:46;11.90;;;7.10;;
16612;SDS011;8419;52.358;9.752;2022-12-18T03:44:39;13.60;;;7.50;;
16612;SDS011;8419;52.358;9.752;2022-12-18T03:47:33;15.17;;;7.47;;
16612;SDS011;8419;52.358;9.752;2022-12-18T03:50:32;10.83;;;6.97;;
16612;SDS011;8419;52.358;9.752;2022-12-18T03:53:28;13.10;;;7.10;;
16612;SDS011;8419;52.358;9.752;2022-12-18T03:56:21;14.53;;;8.37;;
16612;SDS011;8419;52.358;9.752;2022-12-18T03:59:10;12.53;;;7.50;;
16612;SDS011;8419;52.358;9.752;2022-12-18T04:01:58;15.70;;;8.03;;
16612;SDS011;8419;52.358;9.752;2022-12-18T04:04:46;15.37;;;7.67;;
16612;SDS011;8419;52.358;9.752;2022-12-18T04:07:34;11.13;;;6.40;;
16612;SDS011;8419;52.358;9.752;2022-12-18T04:10:21;12.53;;;6.73;;
16612;SDS011;8419;52.358;9.752;2022-12-18T04:13:06;11.47;;;7.60;;
16612;SDS011;8419;52.358;9.752;2022-12-18T04:15:53;13.03;;;6.47;;
16612;SDS011;8419;52.358;9.752;2022-12-18T04:18:38;11.77;;;6.97;;
16612;SDS011;8419;52.358;9.752;2022-12-18T04:21:24;14.07;;;7.53;;
16612;SDS011;8419;52.358;9.752;2022-12-18T04:24:09;11.97;;;7.17;;
16612;SDS011;8419;52.358;9.752;2022-12-18T04:26:55;15.23;;;8.33;;
16612;SDS011;8419;52.358;9.752;2022-12-18T04:29:41;12.73;;;7.80;;
16612;SDS011;8419;52.358;9.752;2022-12-18T04:32:26;12.60;;;7.73;;
16612;SDS011;8419;52.358;9.752;2022-12-18T04:35:12;12.13;;;7.20;;
16612;SDS011;8419;52.358;9.752;2022-12-18T04:37:58;10.77;;;6.97;;
16612;SDS011;8419;52.358;9.752;2022-12-18T04:40:43;13.53;;;7.07;;
16612;SDS011;8419;52.358;9.752;2022-12-18T04:43:29;14.73;;;7.80;;
16612;SDS011;8419;52.358;9.752;2022-12-18T04:46:17;11.37;;;7.07;;
16612;SDS011;8419;52.358;9.752;2022-12-18T04:49:02;10.60;;;6.97;;
16612;SDS011;8419;52.358;9.752;2022-12-18T04:51:48;12.47;;;7.40;;
16612;SDS011;8419;52.358;9.752;2022-12-18T04:54:33;14.50;;;7.40;;
16612;SDS011;8419;52.358;9.752;2022-12-18T04:57:19;12.53;;;7.57;;
16612;SDS011;8419;52.358;9.752;2022-12-18T05:00:07;12.03;;;7.00;;
16612;SDS011;8419;52.358;9.752;2022-12-18T05:02:54;15.23;;;7.30;;
16612;SDS011;8419;52.358;9.752;2022-12-18T05:05:39;10.17;;;6.70;;
16612;SDS011;8419;52.358;9.752;2022-12-18T05:08:25;13.13;;;7.17;;
16612;SDS011;8419;52.358;9.752;2022-12-18T05:11:12;9.97;;;6.97;;
16612;SDS011;8419;52.358;9.752;2022-12-18T05:13:59;12.53;;;7.37;;
16612;SDS011;8419;52.358;9.752;2022-12-18T05:16:45;11.17;;;6.87;;
16612;SDS011;8419;52.358;9.752;2022-12-18T05:19:30;12.23;;;7.00;;
16612;SDS011;8419;52.358;9.752;2022-12-18T05:22:17;12.17;;;7.30;;
16612;SDS011;8419;52.358;9.752;2022-12-18T05:25:04;10.87;;;6.43;;
16612;SDS011;8419;52.358;9.752;2022-12-18T05:27:50;10.67;;;6.90;;
16612;SDS011;8419;52.358;9.752;2022-12-18T05:30:36;11.53;;;6.57;;
16612;SDS011;8419;52.358;9.752;2022-12-18T05:33:22;10.93;;;6.17;;
16612;SDS011;8419;52.358;9.752;2022-12-18T05:36:09;12.03;;;6.77;;
16612;SDS011;8419;52.358;9.752;2022-12-18T05:38:56;10.97;;;6.67;;
16612;SDS011;8419;52.358;9.752;2022-12-18T05:41:42;14.93;;;6.13;;
16612;SDS011;8419;52.358;9.752;2022-12-18T05:44:28;12.10;;;6.27;;
16612;SDS011;8419;52.358;9.752;2022-12-18T05:47:14;14.90;;;6.60;;
16612;SDS011;8419;52.358;9.752;2022-12-18T05:50:00;9.33;;;5.53;;
16612;SDS011;8419;52.358;9.752;2022-12-18T05:52:46;13.13;;;5.63;;
16612;SDS011;8419;52.358;9.752;2022-12-18T05:55:33;11.60;;;5.40;;
16612;SDS011;8419;52.358;9.752;2022-12-18T05:58:19;8.13;;;5.67;;
16612;SDS011;8419;52.358;9.752;2022-12-18T06:01:08;8.57;;;5.67;;
16612;SDS011;8419;52.358;9.752;2022-12-18T06:03:58;8.30;;;5.67;;
16612;SDS011;8419;52.358;9.752;2022-12-18T06:06:44;14.13;;;6.60;;
16612;SDS011;8419;52.358;9.752;2022-12-18T06:09:30;10.07;;;5.40;;
16612;SDS011;8419;52.358;9.752;2022-12-18T06:12:16;9.50;;;6.37;;
16612;SDS011;8419;52.358;9.752;2022-12-18T06:15:02;11.27;;;5.73;;
16612;SDS011;8419;52.358;9.752;2022-12-18T06:17:48;10.63;;;5.60;;
16612;SDS011;8419;52.358;9.752;2022-12-18T06:20:33;9.97;;;5.47;;
16612;SDS011;8419;52.358;9.752;2022-12-18T06:23:21;9.73;;;5.80;;
16612;SDS011;8419;52.358;9.752;2022-12-18T06:26:08;6.07;;;4.87;;
16612;SDS011;8419;52.358;9.752;2022-12-18T06:28:55;11.17;;;5.13;;
16612;SDS011;8419;52.358;9.752;2022-12-18T06:31:41;11.67;;;5.37;;
16612;SDS011;8419;52.358;9.752;2022-12-18T06:34:26;8.90;;;5.23;;
16612;SDS011;8419;52.358;9.752;2022-12-18T06:37:13;7.50;;;4.60;;
16612;SDS011;8419;52.358;9.752;2022-12-18T06:39:59;9.47;;;5.20;;
16612;SDS011;8419;52.358;9.752;2022-12-18T06:42:45;10.27;;;4.93;;
16612;SDS011;8419;52.358;9.752;2022-12-18T06:45:31;9.40;;;5.43;;
16612;SDS011;8419;52.358;9.752;2022-12-18T06:48:16;7.57;;;4.17;;
16612;SDS011;8419;52.358;9.752;2022-12-18T06:51:02;11.03;;;5.87;;
16612;SDS011;8419;52.358;9.752;2022-12-18T06:53:48;8.30;;;5.07;;
16612;SDS011;8419;52.358;9.752;2022-12-18T06:56:34;11.57;;;4.80;;
16612;SDS011;8419;52.358;9.752;2022-12-18T06:59:19;8.73;;;4.90;;
16612;SDS011;8419;52.358;9.752;2022-12-18T07:02:05;7.07;;;5.43;;
16612;SDS011;8419;52.358;9.752;2022-12-18T07:04:51;8.47;;;5.10;;
16612;SDS011;8419;52.358;9.752;2022-12-18T07:07:36;11.43;;;5.77;;
16612;SDS011;8419;52.358;9.752;2022-12-18T07:10:22;8.10;;;5.33;;
16612;SDS011;8419;52.358;9.752;2022-12-18T07:13:07;8.07;;;5.00;;
16612;SDS011;8419;52.358;9.752;2022-12-18T07:15:55;8.90;;;5.47;;
16612;SDS011;8419;52.358;9.752;2022-12-18T07:18:47;11.27;;;5.23;;
16612;SDS011;8419;52.358;9.752;2022-12-18T07:21:32;11.00;;;5.60;;
16612;SDS011;8419;52.358;9.752;2022-12-18T07:24:18;12.10;;;5.77;;
16612;SDS011;8419;52.358;9.752;2022-12-18T07:27:04;12.33;;;5.93;;
16612;SDS011;8419;52.358;9.752;2022-12-18T07:29:49;12.03;;;5.70;;
16612;SDS011;8419;52.358;9.752;2022-12-18T07:32:35;13.00;;;6.40;;
16612;SDS011;8419;52.358;9.752;2022-12-18T07:35:21;11.37;;;5.43;;
16612;SDS011;8419;52.358;9.752;2022-12-18T07:38:07;9.07;;;5.67;;
16612;SDS011;8419;52.358;9.752;2022-12-18T07:40:53;10.07;;;5.33;;
16612;SDS011;8419;52.358;9.752;2022-12-18T07:43:39;12.63;;;5.20;;
16612;SDS011;8419;52.358;9.752;2022-12-18T07:46:25;9.60;;;5.20;;
16612;SDS011;8419;52.358;9.752;2022-12-18T07:49:12;8.57;;;5.33;;
16612;SDS011;8419;52.358;9.752;2022-12-18T07:51:57;9.80;;;5.77;;
16612;SDS011;8419;52.358;9.752;2022-12-18T07:54:44;10.10;;;5.87;;
16612;SDS011;8419;52.358;9.752;2022-12-18T07:57:33;10.17;;;5.83;;
16612;SDS011;8419;52.358;9.752;2022-12-18T08:00:19;9.83;;;5.73;;
16612;SDS011;8419;52.358;9.752;2022-12-18T08:03:05;10.90;;;5.70;;
16612;SDS011;8419;52.358;9.752;2022-12-18T08:05:51;11.37;;;6.13;;
16612;SDS011;8419;52.358;9.752;2022-12-18T08:08:37;8.03;;;5.83;;
16612;SDS011;8419;52.358;9.752;2022-12-18T08:11:26;11.43;;;6.23;;
16612;SDS011;8419;52.358;9.752;2022-12-18T08:14:13;7.10;;;5.00;;
16612;SDS011;8419;52.358;9.752;2022-12-18T08:16:59;10.30;;;6.13;;
16612;SDS011;8419;52.358;9.752;2022-12-18T08:19:44;11.73;;;6.30;;
16612;SDS011;8419;52.358;9.752;2022-12-18T08:22:30;9.83;;;6.30;;
16612;SDS011;8419;52.358;9.752;2022-12-18T08:25:18;14.87;;;6.87;;
16612;SDS011;8419;52.358;9.752;2022-12-18T08:28:03;8.50;;;5.90;;
16612;SDS011;8419;52.358;9.752;2022-12-18T08:30:51;8.63;;;5.83;;
16612;SDS011;8419;52.358;9.752;2022-12-18T08:33:37;16.00;;;6.77;;
16612;SDS011;8419;52.358;9.752;2022-12-18T08:36:23;9.93;;;5.43;;
16612;SDS011;8419;52.358;9.752;2022-12-18T08:39:10;9.40;;;6.00;;
16612;SDS011;8419;52.358;9.752;2022-12-18T08:41:56;11.47;;;6.33;;
16612;SDS011;8419;52.358;9.752;2022-12-18T08:45:00;9.37;;;5.40;;
16612;SDS011;8419;52.358;9.752;2022-12-18T08:47:46;9.27;;;5.27;;
16612;SDS011;8419;52.358;9.752;2022-12-18T08:50:32;9.27;;;6.50;;
16612;SDS011;8419;52.358;9.752;2022-12-18T08:53:18;10.40;;;6.13;;
16612;SDS011;8419;52.358;9.752;2022-12-18T08:56:04;8.00;;;5.73;;
16612;SDS011;8419;52.358;9.752;2022-12-18T08:58:51;9.00;;;5.63;;
16612;SDS011;8419;52.358;9.752;2022-12-18T09:01:38;9.27;;;5.60;;
16612;SDS011;8419;52.358;9.752;2022-12-18T09:04:24;8.73;;;5.23;;
16612;SDS011;8419;52.358;9.752;2022-12-18T09:07:09;10.77;;;5.90;;
16612;SDS011;8419;52.358;9.752;2022-12-18T09:09:55;8.30;;;5.87;;
16612;SDS011;8419;52.358;9.752;2022-12-18T09:12:41;10.30;;;6.03;;
16612;SDS011;8419;52.358;9.752;2022-12-18T09:15:26;9.40;;;6.23;;
16612;SDS011;8419;52.358;9.752;2022-12-18T09:18:12;10.10;;;5.70;;
16612;SDS011;8419;52.358;9.752;2022-12-18T09:20:59;11.27;;;5.63;;
16612;SDS011;8419;52.358;9.752;2022-12-18T09:23:48;8.83;;;5.53;;
16612;SDS011;8419;52.358;9.752;2022-12-18T09:26:34;7.73;;;5.00;;
16612;SDS011;8419;52.358;9.752;2022-12-18T09:29:20;7.60;;;4.67;;
16612;SDS011;8419;52.358;9.752;2022-12-18T09:32:05;9.07;;;5.40;;
16612;SDS011;8419;52.358;9.752;2022-12-18T09:34:51;8.70;;;4.47;;
16612;SDS011;8419;52.358;9.752;2022-12-18T09:37:36;7.33;;;4.70;;
16612;SDS011;8419;52.358;9.752;2022-12-18T09:40:23;9.17;;;5.60;;
16612;SDS011;8419;52.358;9.752;2022-12-18T09:43:13;5.87;;;4.40;;
16612;SDS011;8419;52.358;9.752;2022-12-18T09:46:04;8.03;;;4.87;;
16612;SDS011;8419;52.358;9.752;2022-12-18T09:48:54;9.50;;;5.10;;
16612;SDS011;8419;52.358;9.752;2022-12-18T09:51:43;11.00;;;5.00;;
16612;SDS011;8419;52.358;9.752;2022-12-18T09:54:36;7.47;;;4.23;;
16612;SDS011;8419;52.358;9.752;2022-12-18T09:57:24;7.27;;;4.87;;
16612;SDS011;8419;52.358;9.752;2022-12-18T10:00:16;6.80;;;4.47;;
16612;SDS011;8419;52.358;9.752;2022-12-18T10:03:08;7.80;;;4.33;;
16612;SDS011;8419;52.358;9.752;2022-12-18T10:05:59;11.87;;;5.33;;
16612;SDS011;8419;52.358;9.752;2022-12-18T10:08:51;9.00;;;4.60;;
16612;SDS011;8419;52.358;9.752;2022-12-18T10:11:46;10.27;;;4.43;;
16612;SDS011;8419;52.358;9.752;2022-12-18T10:14:41;7.00;;;3.97;;
16612;SDS011;8419;52.358;9.752;2022-12-18T10:17:35;7.73;;;5.07;;
16612;SDS011;8419;52.358;9.752;2022-12-18T10:20:30;8.40;;;4.37;;
16612;SDS011;8419;52.358;9.752;2022-12-18T10:23:22;5.03;;;4.20;;
16612;SDS011;8419;52.358;9.752;2022-12-18T10:26:15;8.23;;;4.30;;
16612;SDS011;8419;52.358;9.752;2022-12-18T10:29:04;9.87;;;4.80;;
16612;SDS011;8419;52.358;9.752;2022-12-18T10:31:55;7.83;;;4.33;;
16612;SDS011;8419;52.358;9.752;2022-12-18T10:34:41;8.27;;;4.53;;
16612;SDS011;8419;52.358;9.752;2022-12-18T10:37:30;6.37;;;3.57;;
16612;SDS011;8419;52.358;9.752;2022-12-18T10:40:15;7.13;;;4.60;;
16612;SDS011;8419;52.358;9.752;2022-12-18T10:43:05;6.70;;;4.60;;
16612;SDS011;8419;52.358;9.752;2022-12-18T10:46:00;8.17;;;4.77;;
16612;SDS011;8419;52.358;9.752;2022-12-18T10:48:53;5.20;;;4.00;;
16612;SDS011;8419;52.358;9.752;2022-12-18T10:51:40;6.63;;;3.90;;
16612;SDS011;8419;52.358;9.752;2022-12-18T10:54:33;7.73;;;4.30;;
16612;SDS011;8419;52.358;9.752;2022-12-18T10:57:30;8.20;;;4.70;;
16612;SDS011;8419;52.358;9.752;2022-12-18T11:00:26;6.87;;;4.23;;
16612;SDS011;8419;52.358;9.752;2022-12-18T11:06:33;6.30;;;4.53;;
16612;SDS011;8419;52.358;9.752;2022-12-18T11:09:37;6.33;;;4.13;;
16612;SDS011;8419;52.358;9.752;2022-12-18T11:12:24;5.53;;;3.93;;
16612;SDS011;8419;52.358;9.752;2022-12-18T11:15:16;6.13;;;4.20;;
16612;SDS011;8419;52.358;9.752;2022-12-18T11:18:04;6.60;;;3.97;;
16612;SDS011;8419;52.358;9.752;2022-12-18T11:21:04;6.00;;;3.83;;
16612;SDS011;8419;52.358;9.752;2022-12-18T11:23:53;5.67;;;3.60;;
16612;SDS011;8419;52.358;9.752;2022-12-18T11:26:39;5.73;;;3.60;;
16612;SDS011;8419;52.358;9.752;2022-12-18T11:29:30;5.87;;;3.77;;
16612;SDS011;8419;52.358;9.752;2022-12-18T11:32:31;8.10;;;3.67;;
16612;SDS011;8419;52.358;9.752;2022-12-18T11:35:21;6.90;;;3.90;;
16612;SDS011;8419;52.358;9.752;2022-12-18T11:38:18;5.43;;;3.53;;
16612;SDS011;8419;52.358;9.752;2022-12-18T11:41:11;4.30;;;3.27;;
16612;SDS011;8419;52.358;9.752;2022-12-18T11:44:05;6.20;;;3.97;;
16612;SDS011;8419;52.358;9.752;2022-12-18T11:47:00;4.80;;;3.27;;
16612;SDS011;8419;52.358;9.752;2022-12-18T11:49:50;4.57;;;3.03;;
16612;SDS011;8419;52.358;9.752;2022-12-18T11:52:37;3.80;;;3.20;;
16612;SDS011;8419;52.358;9.752;2022-12-18T11:55:28;4.80;;;3.23;;
16612;SDS011;8419;52.358;9.752;2022-12-18T11:58:26;5.30;;;3.37;;
16612;SDS011;8419;52.358;9.752;2022-12-18T12:01:34;6.90;;;3.70;;
16612;SDS011;8419;52.358;9.752;2022-12-18T12:04:32;6.60;;;3.57;;
16612;SDS011;8419;52.358;9.752;2022-12-18T12:07:34;4.40;;;3.07;;
16612;SDS011;8419;52.358;9.752;2022-12-18T12:10:33;4.57;;;3.60;;
16612;SDS011;8419;52.358;9.752;2022-12-18T12:13:30;2.90;;;2.60;;
16612;SDS011;8419;52.358;9.752;2022-12-18T12:16:28;3.30;;;2.57;;
16612;SDS011;8419;52.358;9.752;2022-12-18T12:19:25;3.63;;;2.23;;
16612;SDS011;8419;52.358;9.752;2022-12-18T12:22:23;3.43;;;2.37;;
16612;SDS011;8419;52.358;9.752;2022-12-18T12:25:20;3.80;;;2.60;;
16612;SDS011;8419;52.358;9.752;2022-12-18T12:28:18;3.13;;;2.27;;
16612;SDS011;8419;52.358;9.752;2022-12-18T12:31:13;3.57;;;2.30;;
16612;SDS011;8419;52.358;9.752;2022-12-18T12:34:09;5.87;;;2.33;;
16612;SDS011;8419;52.358;9.752;2022-12-18T12:37:06;6.70;;;3.07;;
16612;SDS011;8419;52.358;9.752;2022-12-18T12:40:01;3.83;;;2.50;;
16612;SDS011;8419;52.358;9.752;2022-12-18T12:42:50;7.20;;;3.10;;
16612;SDS011;8419;52.358;9.752;2022-12-18T12:45:59;4.17;;;2.43;;
16612;SDS011;8419;52.358;9.752;2022-12-18T12:48:49;3.17;;;2.67;;
16612;SDS011;8419;52.358;9.752;2022-12-18T12:51:38;2.53;;;2.30;;
16612;SDS011;8419;52.358;9.752;2022-12-18T12:54:26;3.83;;;2.67;;
16612;SDS011;8419;52.358;9.752;2022-12-18T12:57:14;7.13;;;3.07;;
16612;SDS011;8419;52.358;9.752;2022-12-18T13:00:07;4.30;;;3.00;;
16612;SDS011;8419;52.358;9.752;2022-12-18T13:03:03;6.83;;;3.43;;
16612;SDS011;8419;52.358;9.752;2022-12-18T13:05:54;6.53;;;3.70;;
16612;SDS011;8419;52.358;9.752;2022-12-18T13:08:55;5.03;;;3.20;;
16612;SDS011;8419;52.358;9.752;2022-12-18T13:11:43;4.53;;;3.20;;
16612;SDS011;8419;52.358;9.752;2022-12-18T13:14:49;6.03;;;3.23;;
16612;SDS011;8419;52.358;9.752;2022-12-18T13:17:35;5.47;;;4.00;;
16612;SDS011;8419;52.358;9.752;2022-12-18T13:20:20;7.63;;;3.53;;
16612;SDS011;8419;52.358;9.752;2022-12-18T13:23:19;5.70;;;4.00;;
16612;SDS011;8419;52.358;9.752;2022-12-18T13:26:33;7.97;;;4.17;;
16612;SDS011;8419;52.358;9.752;2022-12-18T13:32:27;10.57;;;4.90;;
16612;SDS011;8419;52.358;9.752;2022-12-18T13:38:36;13.50;;;6.47;;
16612;SDS011;8419;52.358;9.752;2022-12-18T13:41:23;9.77;;;6.33;;
16612;SDS011;8419;52.358;9.752;2022-12-18T13:44:12;10.33;;;6.87;;
16612;SDS011;8419;52.358;9.752;2022-12-18T13:47:25;11.40;;;6.43;;
16612;SDS011;8419;52.358;9.752;2022-12-18T13:50:20;8.73;;;5.90;;
16612;SDS011;8419;52.358;9.752;2022-12-18T13:53:15;12.77;;;6.23;;
16612;SDS011;8419;52.358;9.752;2022-12-18T13:56:08;11.90;;;6.23;;
16612;SDS011;8419;52.358;9.752;2022-12-18T13:59:12;13.17;;;6.10;;
16612;SDS011;8419;52.358;9.752;2022-12-18T14:02:11;12.30;;;6.63;;
16612;SDS011;8419;52.358;9.752;2022-12-18T14:05:01;9.47;;;5.53;;
16612;SDS011;8419;52.358;9.752;2022-12-18T14:07:50;13.80;;;6.63;;
16612;SDS011;8419;52.358;9.752;2022-12-18T14:10:40;11.33;;;6.53;;
16612;SDS011;8419;52.358;9.752;2022-12-18T14:13:29;13.50;;;7.97;;
16612;SDS011;8419;52.358;9.752;2022-12-18T14:16:18;13.27;;;7.27;;
16612;SDS011;8419;52.358;9.752;2022-12-18T14:19:04;18.43;;;7.20;;
16612;SDS011;8419;52.358;9.752;2022-12-18T14:21:54;15.43;;;7.30;;
16612;SDS011;8419;52.358;9.752;2022-12-18T14:24:40;13.97;;;7.50;;
16612;SDS011;8419;52.358;9.752;2022-12-18T14:27:26;14.50;;;7.37;;
16612;SDS011;8419;52.358;9.752;2022-12-18T14:30:24;16.87;;;8.30;;
16612;SDS011;8419;52.358;9.752;2022-12-18T14:33:13;11.33;;;7.00;;
16612;SDS011;8419;52.358;9.752;2022-12-18T14:36:00;16.07;;;8.27;;
16612;SDS011;8419;52.358;9.752;2022-12-18T14:38:50;13.37;;;8.23;;
16612;SDS011;8419;52.358;9.752;2022-12-18T14:41:37;12.07;;;8.13;;
16612;SDS011;8419;52.358;9.752;2022-12-18T14:44:26;11.80;;;7.80;;
16612;SDS011;8419;52.358;9.752;2022-12-18T14:47:13;14.40;;;8.20;;
16612;SDS011;8419;52.358;9.752;2022-12-18T14:50:00;15.77;;;8.37;;
16612;SDS011;8419;52.358;9.752;2022-12-18T14:52:46;13.20;;;8.47;;
16612;SDS011;8419;52.358;9.752;2022-12-18T14:55:31;14.43;;;7.70;;
16612;SDS011;8419;52.358;9.752;2022-12-18T14:58:23;13.20;;;8.00;;
16612;SDS011;8419;52.358;9.752;2022-12-18T15:01:13;20.07;;;8.33;;
16612;SDS011;8419;52.358;9.752;2022-12-18T15:04:04;15.00;;;7.80;;
16612;SDS011;8419;52.358;9.752;2022-12-18T15:07:11;16.83;;;8.53;;
16612;SDS011;8419;52.358;9.752;2022-12-18T15:10:01;15.73;;;8.43;;
16612;SDS011;8419;52.358;9.752;2022-12-18T15:13:07;13.43;;;8.37;;
16612;SDS011;8419;52.358;9.752;2022-12-18T15:15:59;14.23;;;8.17;;
16612;SDS011;8419;52.358;9.752;2022-12-18T15:18:47;13.70;;;8.03;;
16612;SDS011;8419;52.358;9.752;2022-12-18T15:21:33;19.00;;;9.43;;
16612;SDS011;8419;52.358;9.752;2022-12-18T15:24:19;16.70;;;8.93;;
16612;SDS011;8419;52.358;9.752;2022-12-18T15:27:19;17.77;;;9.13;;
16612;SDS011;8419;52.358;9.752;2022-12-18T15:30:16;18.87;;;9.63;;
16612;SDS011;8419;52.358;9.752;2022-12-18T15:33:22;12.80;;;8.67;;
16612;SDS011;8419;52.358;9.752;2022-12-18T15:36:10;16.77;;;9.57;;
16612;SDS011;8419;52.358;9.752;2022-12-18T15:39:00;19.97;;;9.87;;
16612;SDS011;8419;52.358;9.752;2022-12-18T15:41:46;15.73;;;9.23;;
16612;SDS011;8419;52.358;9.752;2022-12-18T15:44:50;15.77;;;9.63;;
16612;SDS011;8419;52.358;9.752;2022-12-18T15:47:36;17.73;;;8.97;;
16612;SDS011;8419;52.358;9.752;2022-12-18T15:50:22;16.87;;;9.40;;
16612;SDS011;8419;52.358;9.752;2022-12-18T15:53:07;13.90;;;9.40;;
16612;SDS011;8419;52.358;9.752;2022-12-18T15:55:53;16.10;;;8.77;;
16612;SDS011;8419;52.358;9.752;2022-12-18T15:58:57;15.90;;;8.93;;
16612;SDS011;8419;52.358;9.752;2022-12-18T16:01:44;18.03;;;9.27;;
16612;SDS011;8419;52.358;9.752;2022-12-18T16:04:31;18.63;;;8.83;;
16612;SDS011;8419;52.358;9.752;2022-12-18T16:07:17;18.70;;;9.47;;
16612;SDS011;8419;52.358;9.752;2022-12-18T16:10:03;12.93;;;8.47;;
16612;SDS011;8419;52.358;9.752;2022-12-18T16:12:50;18.17;;;9.27;;
16612;SDS011;8419;52.358;9.752;2022-12-18T16:15:36;16.10;;;9.07;;
16612;SDS011;8419;52.358;9.752;2022-12-18T16:18:21;14.70;;;9.03;;
16612;SDS011;8419;52.358;9.752;2022-12-18T16:21:07;15.43;;;8.77;;
16612;SDS011;8419;52.358;9.752;2022-12-18T16:23:53;13.33;;;8.97;;
16612;SDS011;8419;52.358;9.752;2022-12-18T16:26:38;16.63;;;9.30;;
16612;SDS011;8419;52.358;9.752;2022-12-18T16:29:26;13.03;;;7.90;;
16612;SDS011;8419;52.358;9.752;2022-12-18T16:32:13;14.40;;;7.93;;
16612;SDS011;8419;52.358;9.752;2022-12-18T16:35:01;17.07;;;8.83;;
16612;SDS011;8419;52.358;9.752;2022-12-18T16:37:46;13.00;;;8.23;;
16612;SDS011;8419;52.358;9.752;2022-12-18T16:40:32;13.97;;;7.53;;
16612;SDS011;8419;52.358;9.752;2022-12-18T16:44:15;20.93;;;8.63;;
16612;SDS011;8419;52.358;9.752;2022-12-18T16:47:00;13.43;;;8.23;;
16612;SDS011;8419;52.358;9.752;2022-12-18T16:49:47;13.83;;;8.30;;
16612;SDS011;8419;52.358;9.752;2022-12-18T16:52:34;12.57;;;8.23;;
16612;SDS011;8419;52.358;9.752;2022-12-18T16:55:20;13.63;;;8.40;;
16612;SDS011;8419;52.358;9.752;2022-12-18T16:58:06;14.23;;;8.13;;
16612;SDS011;8419;52.358;9.752;2022-12-18T17:00:51;14.13;;;8.17;;
16612;SDS011;8419;52.358;9.752;2022-12-18T17:03:37;12.13;;;7.97;;
16612;SDS011;8419;52.358;9.752;2022-12-18T17:06:23;12.37;;;6.47;;
16612;SDS011;8419;52.358;9.752;2022-12-18T17:09:10;15.30;;;7.80;;
16612;SDS011;8419;52.358;9.752;2022-12-18T17:11:58;10.67;;;7.07;;
16612;SDS011;8419;52.358;9.752;2022-12-18T17:14:43;13.27;;;7.57;;
16612;SDS011;8419;52.358;9.752;2022-12-18T17:17:29;12.40;;;7.13;;